Historyczne dane pomiarowe

Dodano dane terminowe – wersja testowa.

Dane z okresu 1951-2019

Wersja bazy: 1.34 [2019-03-16, lista zmian], aktualizacja planowana na 2019-04-15

Dane meteo z obszaru Polski uzyskane na podstawie danych udostępnionych przez Instytut Meteorologii i Gospodarki Wodnej – Państwowy Instytut Badawczy.

 

Wybierz Datę:    

       

TemperaturaWilgotnośćWiatrCiśnienieOpadyŚniegCzas trwania zjawisk
 Stacja t tx tn tng RH VA  wxwx mslp ppp RRR   cm mm wxwxwxwxwxwxwx
1994-08-14 12.7 17.3 9.4--- 3.0 4.3---- 0.0------------
1994-08-13 16.0 21.0 12.6--- 7.3 4.0---- 5.7------------
1994-08-12 15.8 19.6 13.1--- 7.0 1.0---- 3.4------------
1994-08-11 16.3 21.0 13.7--- 7.0 1.3---- 2.9------------
1994-08-10 18.9 25.0 14.2--- 3.7 0.7---- 0.0------------
1994-08-09 17.2 22.5 15.9--- 8.0 1.3---- 2.0------------
1994-08-08 21.0 27.0 17.3--- 6.3 0.7---- 4.7------------
1994-08-07 23.2 29.0 17.8--- 3.3 1.7---- 2.8------------
1994-08-06 26.2 31.8 19.8--- 1.3 0.3---- 0.0------------
1994-08-05 24.2 30.2 17.3--- 0.7 0.7---- 0.0------------
1994-08-04 22.7 29.0 17.8--- 2.7 0.0---- 0.0------------
1994-08-03 23.6 29.5 19.3--- 3.7 1.3---- 0.0------------
1994-08-02 24.7 31.5 17.8--- 5.3 0.3---- 0.3------------
1994-08-01 27.7 34.0 21.9--- 4.3 0.3---- 8.9------------
1994-07-31 27.7 33.5 21.9--- 1.0 0.3---- 0.0------------
1994-07-30 28.0 34.2 19.8--- 1.7 1.0---- 0.0------------
1994-07-29 27.3 34.0 19.3--- 0.7 0.3---- 0.0------------
1994-07-28 26.5 32.5 19.6--- 0.0 0.3---- 0.0------------
1994-07-27 26.3 32.5 17.5--- 0.3 0.7---- 0.0------------
1994-07-26 24.3 32.0 16.6--- 1.3 0.3---- 0.0------------
1994-07-25 23.3 30.4 17.3--- 0.3 0.0---- 0.0------------
1994-07-24 23.3 29.6 16.5--- 0.0 0.7---- 0.0------------
1994-07-23 21.6 27.8 14.7--- 0.0 0.7---- 0.0------------
1994-07-22 20.3 26.2 13.1--- 0.0 1.0---- 0.0------------
1994-07-21 20.8 26.5 12.6--- 0.0 0.7---- 0.0------------
1994-07-20 17.1 23.0 8.6--- 0.0 2.0---- 0.0------------
1994-07-19 17.3 23.2 12.4--- 3.0 3.3---- 0.0------------
1994-07-18 20.1 24.4 16.7--- 3.3 1.7---- 0.0------------
1994-07-17 20.8 27.0 16.7--- 3.3 1.3---- 3.4------------
1994-07-16 23.7 29.8 16.2--- 1.3 1.0---- 0.0------------
1994-07-15 22.7 27.2 16.2--- 0.7 1.3---- 0.0------------
1994-07-14 22.7 28.0 16.7--- 3.0 1.3---- 0.8------------
1994-07-13 22.5 27.4 15.2--- 0.0 1.0---- 0.0------------
1994-07-12 21.3 27.0 13.7--- 2.3 1.3---- 0.0------------
1994-07-11 18.2 24.5 12.1--- 4.0 1.3---- 0.0------------
1994-07-10 14.9 23.0 10.2--- 5.0 1.7---- 10.3------------
1994-07-09 13.2 16.6 11.1--- 6.7 2.3---- 7.6------------
1994-07-08 15.9 22.0 13.1--- 4.0 2.7---- 2.5------------
1994-07-07 19.8 25.6 11.6--- 2.0 1.3---- 1.6------------
1994-07-06 18.2 25.0 10.2--- 2.0 1.3---- 0.0------------
1994-07-05 20.0 25.4 12.6--- 4.0 2.0---- 0.0------------
1994-07-04 20.3 26.2 12.6--- 0.3 1.0---- 0.0------------
1994-07-03 19.0 25.6 10.1--- 0.0 0.7---- 0.0------------
1994-07-02 16.9 21.5 9.8--- 0.3 1.3---- 0.0------------
1994-07-01 17.9 22.5 9.6--- 2.0 0.7---- 0.0------------
1994-06-30 21.9 26.9 17.4 13.6 75.5- 4.0 1.3---- 0.0------------
1994-06-29 23.9 30.0 16.7 10.1 64.0- 0.0 0.0---- 0.0------------
1994-06-28 23.6 28.0 17.3 12.6 68.0- 0.7 1.3---- 0.0------------
1994-06-27 24.6 30.4 17.3 14.6 65.0- 0.7 1.7---- 0.0------------
1994-06-26 20.6 28.0 10.1 9.6 62.3- 0.0 0.7---- 0.0------------
1994-06-25 15.6 22.2 7.3 0.0 64.3- 0.0 0.7---- 0.0------------
1994-06-24 13.1 18.4 4.7 1.3 61.3- 1.0 10.0---- 0.0------------
1994-06-23 15.5 21.3 13.8 11.5 58.8- 1.3 10.7---- 0.0------------
1994-06-22 18.1 24.7 10.4 5.7 64.3- 3.3 4.7---- 0.0------------
1994-06-21 14.9 19.5 7.6 1.6 59.8- 0.7 0.3---- 0.0------------
1994-06-20 15.7 19.8 12.1 8.2 70.8- 3.3 3.3---- 0.0------------
1994-06-19 15.4 21.0 9.2 7.6 74.0- 5.7 3.3---- 0.0------------
1994-06-18 10.4 17.3 3.1 -0.1 73.0- 4.7 3.7---- 6.0------------
1994-06-17 9.3 13.7 7.1 5.2 76.5- 8.0 4.0---- 0.6------------
1994-06-16 10.5 14.4 5.7 2.8 73.5- 6.3 3.7---- 1.8------------
487.4 ms

 

Źródłem pochodzenia danych jest Instytut Meteorologii i Gospodarki Wodnej – Państwowy Instytut Badawczy. Dane Instytutu Meteorologii i Gospodarki Wodnej – Państwowego Instytutu Badawczego zostały przetworzone.

Dane źródłowe można odnaleźć na stronie https://dane.imgw.pl